Margaret — WDC3267 — position and weather

sailwx.info

Track history (hours):
 
Tides and Currents Weather Stations Pressure Air Temp Water Temp Dewpoint Dewpoint Depression Visibility Wind Speed Wind Dir Waves Ship Positions

Margaret

More information available from US FCC via Universal Licensing System and Coast Guard Vessel Documentation Center.

Last reported at 2014-Sep-07 04:14 UTC. Time now 2014-Sep-23 18:28 UTC.
Position N 30°23' W 086°58'.
Warning: this ship's position is 16 days out of date.

; draft 9 m.

Type: Towing. MMSI: 367004940.

Date/timePositionNaut miles runAvg speedWind from/ knotsBaromVisibWave heightAir tempDewpointWater temp
2014-Sep-07 04:14N 30°23' W 086°58'4 5.6
2014-Sep-07 03:33N 30°24' W 086°53'6 5.7
2014-Sep-07 02:34N 30°24' W 086°47'11 5.5
2014-Sep-07 00:34N 30°24' W 086°34'4 4.5
2014-Sep-06 23:34N 30°27' W 086°30'4 4.3
2014-Sep-06 22:33N 30°31' W 086°29'0 0.4
2014-Sep-06 21:33N 30°31' W 086°30'0 0.0
2014-Sep-06 18:34N 30°31' W 086°30'0 0.0
2014-Sep-06 17:30N 30°31' W 086°30'0 0.1
2014-Sep-06 16:33N 30°31' W 086°30'0 0.0
2014-Sep-06 15:33N 30°31' W 086°30'0 0.0
2014-Sep-06 14:33N 30°31' W 086°30'3 2.7
2014-Sep-06 13:33N 30°29' W 086°28'5 4.5
2014-Sep-06 12:29N 30°25' W 086°32'7 5.2
2014-Sep-06 11:14N 30°24' W 086°39'4 4.8
2014-Sep-06 10:26N 30°24' W 086°44'5 5.3
2014-Sep-06 09:29N 30°24' W 086°50'6 5.5
2014-Sep-06 08:25N 30°23' W 086°56'2 0.2
2014-Sep-06 00:31N 30°24' W 086°54'7 7.3
2014-Sep-05 23:33N 30°24' W 086°46'7 7.1
2014-Sep-05 22:33N 30°24' W 086°38'7 6.8
2014-Sep-05 21:34N 30°26' W 086°30'5 5.0
2014-Sep-05 20:33N 30°31' W 086°30'0 0.0
2014-Sep-05 19:33N 30°31' W 086°30'0 0.0
2014-Sep-05 18:33N 30°31' W 086°30'0 0.0
2014-Sep-05 17:33N 30°31' W 086°30'0 0.0
2014-Sep-05 16:33N 30°31' W 086°30'0 0.1
2014-Sep-05 15:33N 30°31' W 086°30'0 0.0
2014-Sep-05 14:33N 30°31' W 086°30'0 0.0
2014-Sep-05 13:33N 30°31' W 086°30'0 0.0
2014-Sep-05 12:33N 30°31' W 086°30'0 0.1
2014-Sep-05 11:33N 30°31' W 086°30'0 0.1
2014-Sep-05 10:33N 30°31' W 086°30'0 0.0
2014-Sep-05 09:33N 30°31' W 086°30'2 1.3
2014-Sep-05 08:15N 30°30' W 086°29'3 3.8
2014-Sep-05 07:34N 30°27' W 086°28'3 2.7
2014-Sep-05 06:33N 30°26' W 086°31'12 3.9
2014-Sep-05 03:26N 30°24' W 086°45'4 4.2
2014-Sep-05 02:32N 30°24' W 086°49'  
2014-Aug-31 18:33N 30°24' W 086°51'13 6.6
2014-Aug-31 16:33N 30°24' W 086°35'7 7.3
2014-Aug-31 15:33N 30°26' W 086°27'9 7.5
2014-Aug-31 14:22N 30°26' W 086°17'1 0.0
2014-Aug-29 19:33N 30°26' W 086°18'6 6.3
2014-Aug-29 18:33N 30°26' W 086°26'18 5.6
2014-Aug-29 15:20N 30°24' W 086°46'5 6.0
2014-Aug-29 14:33N 30°24' W 086°52'  
Track history (hours):
 
Tides and Currents Weather Stations Pressure Air Temp Water Temp Dewpoint Dewpoint Depression Visibility Wind Speed Wind Dir Waves Ship Positions

Margaret

More information available from US FCC via Universal Licensing System and Coast Guard Vessel Documentation Center.

Last reported at 2014-Sep-07 04:14 UTC. Time now 2014-Sep-23 18:28 UTC.
Position N 30°23' W 086°58'.
Warning: this ship's position is 16 days out of date.

; draft 9 m.

Type: Towing. MMSI: 367004940.

Date/timePositionNaut miles runAvg speedWind from/ knotsBaromVisibWave heightAir tempDewpointWater temp
2014-Sep-07 04:14N 30°23' W 086°58'4 5.6
2014-Sep-07 03:33N 30°24' W 086°53'6 5.7
2014-Sep-07 02:34N 30°24' W 086°47'11 5.5
2014-Sep-07 00:34N 30°24' W 086°34'4 4.5
2014-Sep-06 23:34N 30°27' W 086°30'4 4.3
2014-Sep-06 22:33N 30°31' W 086°29'0 0.4
2014-Sep-06 21:33N 30°31' W 086°30'0 0.0
2014-Sep-06 18:34N 30°31' W 086°30'0 0.0
2014-Sep-06 17:30N 30°31' W 086°30'0 0.1
2014-Sep-06 16:33N 30°31' W 086°30'0 0.0
2014-Sep-06 15:33N 30°31' W 086°30'0 0.0
2014-Sep-06 14:33N 30°31' W 086°30'3 2.7
2014-Sep-06 13:33N 30°29' W 086°28'5 4.5
2014-Sep-06 12:29N 30°25' W 086°32'7 5.2
2014-Sep-06 11:14N 30°24' W 086°39'4 4.8
2014-Sep-06 10:26N 30°24' W 086°44'5 5.3
2014-Sep-06 09:29N 30°24' W 086°50'6 5.5
2014-Sep-06 08:25N 30°23' W 086°56'2 0.2
2014-Sep-06 00:31N 30°24' W 086°54'7 7.3
2014-Sep-05 23:33N 30°24' W 086°46'7 7.1
2014-Sep-05 22:33N 30°24' W 086°38'7 6.8
2014-Sep-05 21:34N 30°26' W 086°30'5 5.0
2014-Sep-05 20:33N 30°31' W 086°30'0 0.0
2014-Sep-05 19:33N 30°31' W 086°30'0 0.0
2014-Sep-05 18:33N 30°31' W 086°30'0 0.0
2014-Sep-05 17:33N 30°31' W 086°30'0 0.0
2014-Sep-05 16:33N 30°31' W 086°30'0 0.1
2014-Sep-05 15:33N 30°31' W 086°30'0 0.0
2014-Sep-05 14:33N 30°31' W 086°30'0 0.0
2014-Sep-05 13:33N 30°31' W 086°30'0 0.0
2014-Sep-05 12:33N 30°31' W 086°30'0 0.1
2014-Sep-05 11:33N 30°31' W 086°30'0 0.1
2014-Sep-05 10:33N 30°31' W 086°30'0 0.0
2014-Sep-05 09:33N 30°31' W 086°30'2 1.3
2014-Sep-05 08:15N 30°30' W 086°29'3 3.8
2014-Sep-05 07:34N 30°27' W 086°28'3 2.7
2014-Sep-05 06:33N 30°26' W 086°31'12 3.9
2014-Sep-05 03:26N 30°24' W 086°45'4 4.2
2014-Sep-05 02:32N 30°24' W 086°49'  
2014-Aug-31 18:33N 30°24' W 086°51'13 6.6
2014-Aug-31 16:33N 30°24' W 086°35'7 7.3
2014-Aug-31 15:33N 30°26' W 086°27'9 7.5
2014-Aug-31 14:22N 30°26' W 086°17'1 0.0
2014-Aug-29 19:33N 30°26' W 086°18'6 6.3
2014-Aug-29 18:33N 30°26' W 086°26'18 5.6
2014-Aug-29 15:20N 30°24' W 086°46'5 6.0
2014-Aug-29 14:33N 30°24' W 086°52'  

Dump ship's entire track history